createdAt,value
2017-11-06T00:00:50.036Z,6.37
2017-11-06T00:03:21.249Z,6.35
2017-11-06T00:05:52.692Z,6.33
2017-11-06T00:08:24.442Z,6.32
2017-11-06T00:10:55.471Z,6.28
2017-11-06T00:13:26.590Z,6.33
2017-11-06T00:15:57.380Z,6.31
2017-11-06T00:18:28.594Z,6.30
2017-11-06T00:20:59.630Z,6.27
2017-11-06T00:23:30.744Z,6.36
2017-11-06T00:26:01.901Z,6.37
2017-11-06T00:28:33.226Z,6.32
2017-11-06T00:31:04.462Z,6.40
2017-11-06T00:33:36.072Z,6.35
2017-11-06T00:36:07.438Z,6.30
2017-11-06T00:38:39.114Z,6.30
2017-11-06T00:41:09.972Z,6.20
2017-11-06T00:43:41.148Z,6.37
2017-11-06T00:48:47.115Z,6.33
2017-11-06T00:51:18.335Z,6.28
2017-11-06T00:53:49.566Z,6.38
2017-11-06T00:56:21.459Z,6.39
2017-11-06T00:58:53.701Z,6.28
2017-11-06T01:01:24.667Z,6.41
2017-11-06T01:03:55.658Z,6.29
2017-11-06T01:06:26.983Z,6.30
2017-11-06T01:08:58.034Z,6.41
2017-11-06T01:11:29.249Z,6.25
2017-11-06T01:14:00.536Z,6.26
2017-11-06T01:16:31.663Z,6.33
2017-11-06T01:19:03.271Z,6.48
2017-11-06T01:21:34.296Z,6.32
2017-11-06T01:24:05.025Z,6.25
2017-11-06T01:26:35.620Z,6.25
2017-11-06T01:29:07.653Z,6.27
2017-11-06T01:31:39.399Z,6.26
2017-11-06T01:34:10.523Z,6.29
2017-11-06T01:36:41.180Z,6.16
2017-11-06T01:39:12.475Z,6.25
2017-11-06T01:41:43.439Z,6.23
2017-11-06T01:44:14.790Z,6.23
2017-11-06T01:46:45.535Z,6.23
2017-11-06T01:49:17.423Z,6.24
2017-11-06T01:51:48.159Z,6.24
2017-11-06T01:54:20.555Z,6.29
2017-11-06T01:56:59.451Z,6.33
2017-11-06T01:59:30.519Z,6.30
2017-11-06T02:02:02.072Z,6.27
2017-11-06T02:04:33.314Z,6.27
2017-11-06T02:07:04.202Z,6.34
2017-11-06T02:09:36.474Z,6.30
2017-11-06T02:12:07.150Z,6.39
2017-11-06T02:14:38.300Z,6.28
2017-11-06T02:17:09.014Z,6.29
2017-11-06T02:19:40.195Z,6.38
2017-11-06T02:22:12.119Z,6.28
2017-11-06T02:24:43.111Z,6.21
2017-11-06T02:27:16.072Z,6.24
2017-11-06T02:29:46.816Z,6.25
2017-11-06T02:32:18.868Z,6.31
2017-11-06T02:34:50.102Z,6.25
2017-11-06T02:37:21.825Z,6.19
2017-11-06T02:39:52.863Z,6.12
2017-11-06T02:42:24.373Z,6.14
2017-11-06T02:44:55.010Z,6.22
2017-11-06T02:47:26.631Z,6.15
2017-11-06T02:49:57.209Z,6.18
2017-11-06T02:52:28.174Z,6.12
2017-11-06T02:54:59.067Z,6.05
2017-11-06T02:57:30.128Z,6.07
2017-11-06T03:00:01.261Z,6.10
2017-11-06T03:02:32.181Z,6.05
2017-11-06T03:05:03.340Z,6.08
2017-11-06T03:07:34.037Z,6.05
2017-11-06T03:10:07.057Z,6.03
2017-11-06T03:12:38.468Z,6.01
2017-11-06T03:15:09.239Z,6.01
2017-11-06T03:17:41.361Z,5.98
2017-11-06T03:20:14.014Z,5.99
2017-11-06T03:22:45.583Z,5.96
2017-11-06T03:25:16.825Z,5.96
2017-11-06T03:27:47.706Z,5.95
2017-11-06T03:30:19.253Z,5.80
2017-11-06T03:32:50.543Z,5.81
2017-11-06T03:35:21.214Z,5.90
2017-11-06T03:37:52.297Z,5.97
2017-11-06T03:40:22.940Z,5.88
2017-11-06T03:42:53.486Z,5.83
2017-11-06T03:45:24.171Z,5.89
2017-11-06T03:47:55.177Z,5.84
2017-11-06T03:50:26.009Z,5.77
2017-11-06T03:52:56.730Z,5.78
2017-11-06T03:55:27.987Z,5.80
2017-11-06T03:57:58.578Z,5.76
2017-11-06T04:00:29.321Z,5.77
2017-11-06T04:03:00.275Z,5.75
2017-11-06T04:05:31.056Z,5.79
2017-11-06T04:08:01.872Z,5.80
2017-11-06T04:10:33.246Z,5.78
2017-11-06T04:13:04.870Z,5.82
2017-11-06T04:15:35.587Z,5.83
2017-11-06T04:18:07.005Z,5.80
2017-11-06T04:20:37.736Z,5.76
2017-11-06T04:23:11.387Z,5.81
2017-11-06T04:25:42.307Z,5.86
2017-11-06T04:28:13.178Z,5.86
2017-11-06T04:30:44.109Z,5.91
2017-11-06T04:33:16.139Z,5.97
2017-11-06T04:35:46.842Z,5.93
2017-11-06T04:38:17.918Z,5.84
2017-11-06T04:40:48.609Z,5.78
2017-11-06T04:43:19.838Z,5.93
2017-11-06T04:45:50.532Z,5.91
2017-11-06T04:48:21.498Z,5.93
2017-11-06T04:50:52.363Z,5.76
2017-11-06T04:53:23.225Z,5.82
2017-11-06T04:55:55.979Z,5.83
2017-11-06T04:58:27.620Z,5.78
2017-11-06T05:00:58.408Z,5.81
2017-11-06T05:03:29.242Z,5.76
2017-11-06T05:06:00.158Z,5.79
2017-11-06T05:08:30.953Z,5.88
2017-11-06T05:11:01.588Z,5.87
2017-11-06T05:13:32.488Z,5.85
2017-11-06T05:16:05.047Z,5.82
2017-11-06T05:18:38.121Z,5.79
2017-11-06T05:21:12.355Z,5.79
2017-11-06T05:26:24.196Z,5.73
2017-11-06T05:29:04.851Z,5.72
2017-11-06T05:31:35.984Z,5.67
2017-11-06T05:34:08.086Z,5.68
2017-11-06T05:36:40.024Z,5.65
2017-11-06T05:39:14.034Z,5.59
2017-11-06T05:41:52.134Z,5.49
2017-11-06T05:44:25.357Z,5.48
2017-11-06T05:46:59.597Z,5.43
2017-11-06T05:52:15.754Z,5.50
2017-11-06T05:55:11.558Z,5.45
2017-11-06T05:57:43.305Z,5.52
2017-11-06T06:00:15.613Z,5.48
2017-11-06T06:02:47.507Z,5.53
2017-11-06T06:05:19.314Z,5.57
2017-11-06T06:07:51.659Z,5.59
2017-11-06T06:10:27.388Z,5.59
2017-11-06T06:13:05.511Z,5.58
2017-11-06T06:15:38.952Z,5.72
2017-11-06T06:18:09.938Z,5.67
2017-11-06T06:20:41.911Z,5.65
2017-11-06T06:23:12.796Z,5.79
2017-11-06T06:25:43.717Z,5.64
2017-11-06T06:28:17.292Z,5.59
2017-11-06T06:30:49.318Z,5.67
2017-11-06T06:33:21.332Z,5.69
2017-11-06T06:35:52.487Z,5.53
2017-11-06T06:38:27.833Z,5.60
2017-11-06T06:40:59.085Z,5.67
2017-11-06T06:43:30.200Z,5.70
2017-11-06T06:46:05.759Z,5.73
2017-11-06T06:48:37.674Z,5.61
2017-11-06T06:51:14.510Z,5.57
2017-11-06T06:53:46.540Z,5.62
2017-11-06T06:56:18.757Z,5.54
2017-11-06T06:58:57.778Z,5.55
2017-11-06T07:01:31.419Z,5.64
2017-11-06T07:04:06.633Z,5.69
2017-11-06T07:06:38.348Z,5.67
2017-11-06T07:09:10.362Z,5.59
2017-11-06T07:11:42.760Z,5.52
2017-11-06T07:14:19.769Z,5.53
2017-11-06T07:17:07.514Z,5.45
2017-11-06T07:19:38.806Z,5.58
2017-11-06T07:22:09.819Z,5.56
2017-11-06T07:24:42.822Z,5.48
2017-11-06T07:27:13.994Z,5.51
2017-11-06T07:29:47.727Z,5.40
2017-11-06T07:32:30.491Z,5.30
2017-11-06T07:35:01.328Z,5.29
2017-11-06T07:37:34.637Z,5.40
2017-11-06T07:40:10.024Z,5.52
2017-11-06T07:42:41.758Z,5.54
2017-11-06T07:45:13.507Z,5.48
2017-11-06T07:47:44.678Z,5.54
2017-11-06T07:50:15.650Z,5.57
2017-11-06T07:52:47.494Z,5.58
2017-11-06T07:55:18.358Z,5.55
2017-11-06T07:57:49.275Z,5.56
2017-11-06T08:00:21.053Z,5.57
2017-11-06T08:02:52.142Z,5.50
2017-11-06T08:05:23.450Z,5.47
2017-11-06T08:07:54.892Z,5.53
2017-11-06T08:10:25.594Z,5.70
2017-11-06T08:12:56.996Z,5.72
2017-11-06T08:15:28.463Z,5.77
2017-11-06T08:17:59.266Z,5.84
2017-11-06T08:20:31.761Z,5.91
2017-11-06T08:23:03.952Z,5.98
2017-11-06T08:25:38.002Z,6.04
2017-11-06T08:28:10.052Z,6.06
2017-11-06T08:30:43.842Z,6.11
2017-11-06T08:33:14.755Z,6.22
2017-11-06T08:35:47.761Z,6.24
2017-11-06T08:38:19.078Z,6.05
2017-11-06T08:40:50.227Z,6.00
2017-11-06T08:43:21.409Z,6.12
2017-11-06T08:45:52.510Z,5.98
2017-11-06T08:48:27.104Z,6.15
2017-11-06T08:50:57.897Z,5.88
2017-11-06T08:53:29.662Z,5.93
2017-11-06T08:56:02.379Z,6.07
2017-11-06T08:58:35.086Z,6.24
2017-11-06T09:01:06.669Z,6.08
2017-11-06T09:03:37.390Z,5.81
2017-11-06T09:06:08.686Z,6.17
2017-11-06T09:08:39.862Z,6.17
2017-11-06T09:11:12.945Z,6.40
2017-11-06T09:13:47.015Z,6.38
2017-11-06T09:16:20.800Z,6.30
2017-11-06T09:18:55.265Z,6.25
2017-11-06T09:21:26.388Z,6.28
2017-11-06T09:23:57.860Z,5.99
2017-11-06T09:26:30.178Z,6.00
2017-11-06T09:29:01.252Z,6.04
2017-11-06T09:31:33.157Z,6.02
2017-11-06T09:34:05.093Z,6.03
2017-11-06T09:36:36.836Z,6.10
2017-11-06T09:39:08.917Z,6.28
2017-11-06T09:41:40.163Z,6.45
2017-11-06T09:44:11.351Z,6.49
2017-11-06T09:46:42.200Z,6.53
2017-11-06T09:49:13.870Z,6.23
2017-11-06T09:51:45.329Z,6.17
2017-11-06T09:54:16.494Z,6.18
2017-11-06T09:56:47.900Z,6.13
2017-11-06T09:59:19.040Z,6.38
2017-11-06T10:01:50.586Z,6.40
2017-11-06T10:04:25.206Z,6.60
2017-11-06T10:06:57.272Z,6.71
2017-11-06T10:09:28.790Z,6.68
2017-11-06T10:12:00.199Z,6.71
2017-11-06T10:14:32.103Z,6.74
2017-11-06T10:17:03.678Z,6.84
2017-11-06T10:19:35.644Z,6.89
2017-11-06T10:22:09.995Z,6.80
2017-11-06T10:24:40.824Z,6.92
2017-11-06T10:27:19.166Z,7.05
2017-11-06T10:29:51.020Z,7.16
2017-11-06T10:32:22.504Z,7.25
2017-11-06T10:34:54.325Z,7.59
2017-11-06T10:37:25.730Z,7.91
2017-11-06T10:39:57.209Z,8.12
2017-11-06T10:42:28.261Z,8.09
2017-11-06T10:44:59.947Z,7.93
2017-11-06T10:47:33.289Z,7.61
2017-11-06T10:50:05.526Z,7.48
2017-11-06T10:52:36.646Z,7.35
2017-11-06T10:55:09.013Z,7.78
2017-11-06T10:57:40.660Z,7.82
2017-11-06T11:00:12.902Z,8.23
2017-11-06T11:02:44.618Z,8.07
2017-11-06T11:05:18.675Z,8.16
2017-11-06T11:07:49.843Z,8.23
2017-11-06T11:10:22.213Z,8.46
2017-11-06T11:12:53.666Z,8.65
2017-11-06T11:15:25.238Z,8.61
2017-11-06T11:17:58.999Z,8.53
2017-11-06T11:20:31.753Z,8.40
2017-11-06T11:23:04.446Z,8.24
2017-11-06T11:25:36.956Z,8.41
2017-11-06T11:28:08.190Z,8.13
2017-11-06T11:30:39.295Z,7.89
2017-11-06T11:33:10.327Z,7.94
2017-11-06T11:35:42.284Z,7.94
2017-11-06T11:38:14.019Z,7.94
2017-11-06T11:40:45.848Z,8.08
2017-11-06T11:43:17.038Z,8.23
2017-11-06T11:45:48.835Z,8.37
2017-11-06T11:48:20.877Z,8.30
2017-11-06T11:50:52.264Z,8.51
2017-11-06T11:53:23.269Z,8.45
2017-11-06T11:55:54.574Z,8.33
2017-11-06T11:58:25.443Z,8.41
2017-11-06T12:00:56.725Z,8.53
2017-11-06T12:03:28.172Z,8.64
2017-11-06T12:05:59.154Z,8.27
2017-11-06T12:08:30.815Z,8.16
2017-11-06T12:11:01.824Z,7.95
2017-11-06T12:13:32.845Z,8.03
2017-11-06T12:16:04.420Z,7.68
2017-11-06T12:18:35.965Z,7.78
2017-11-06T12:21:07.847Z,7.96
2017-11-06T12:23:39.759Z,7.95
2017-11-06T12:26:11.926Z,8.09
2017-11-06T12:28:44.048Z,8.23
2017-11-06T12:31:19.114Z,8.20
2017-11-06T12:33:51.315Z,8.36
2017-11-06T12:36:35.510Z,7.96
2017-11-06T12:39:12.502Z,7.58
2017-11-06T12:44:43.102Z,7.75
2017-11-06T12:47:14.634Z,7.60
2017-11-06T12:50:04.503Z,7.53
2017-11-06T12:52:35.662Z,7.33
2017-11-06T12:55:07.037Z,7.31
2017-11-06T12:57:39.257Z,7.23
2017-11-06T13:00:13.248Z,7.13
2017-11-06T13:02:45.098Z,7.14
2017-11-06T13:05:15.831Z,7.19
2017-11-06T13:07:46.882Z,7.19
2017-11-06T13:10:18.408Z,7.23
2017-11-06T13:12:50.589Z,7.44
2017-11-06T13:15:22.966Z,7.53
2017-11-06T13:17:55.911Z,7.67
2017-11-06T13:20:30.105Z,7.80
2017-11-06T13:26:37.002Z,8.25
2017-11-06T13:39:45.894Z,8.06
2017-11-06T13:44:47.428Z,7.87
2017-11-06T13:48:01.939Z,7.65
2017-11-06T13:50:35.825Z,7.57
2017-11-06T13:53:08.972Z,7.49
2017-11-06T13:55:42.936Z,7.37
2017-11-06T13:58:17.614Z,7.36
2017-11-06T14:00:49.348Z,7.29
2017-11-06T14:03:20.777Z,7.34
2017-11-06T14:05:57.071Z,7.41
2017-11-06T14:08:45.221Z,7.33
2017-11-06T14:11:16.617Z,7.33
2017-11-06T14:13:49.653Z,7.33
2017-11-06T14:16:21.390Z,7.34
2017-11-06T14:18:53.989Z,7.34
2017-11-06T14:21:25.635Z,7.38
2017-11-06T14:23:56.950Z,7.42
2017-11-06T14:26:27.782Z,7.48
2017-11-06T14:28:59.056Z,7.50
2017-11-06T14:31:30.104Z,7.53
2017-11-06T14:34:48.799Z,7.50
2017-11-06T14:37:19.998Z,7.47
2017-11-06T14:39:51.381Z,7.44
2017-11-06T14:42:22.764Z,7.42
2017-11-06T14:44:54.855Z,7.30
2017-11-06T14:47:27.380Z,7.34
2017-11-06T14:50:02.794Z,7.32
2017-11-06T14:52:37.065Z,7.28
2017-11-06T14:55:10.783Z,7.27
2017-11-06T14:57:42.779Z,7.23
2017-11-06T15:00:17.516Z,7.25
2017-11-06T15:02:50.794Z,7.17
2017-11-06T15:05:22.953Z,7.13
2017-11-06T15:07:57.802Z,7.08
2017-11-06T15:10:36.488Z,7.02
2017-11-06T15:13:08.987Z,6.96
2017-11-06T15:15:41.711Z,7.00
2017-11-06T15:18:15.530Z,6.94
2017-11-06T15:20:49.274Z,6.86
2017-11-06T15:23:21.096Z,6.87
2017-11-06T15:25:53.068Z,6.81
2017-11-06T15:28:24.495Z,6.75
2017-11-06T15:30:56.094Z,6.78
2017-11-06T15:33:28.373Z,6.76
2017-11-06T15:36:00.189Z,6.77
2017-11-06T15:38:33.300Z,6.81
2017-11-06T15:41:07.442Z,6.85
2017-11-06T15:43:40.302Z,6.90
2017-11-06T15:46:12.214Z,6.90
2017-11-06T15:48:45.896Z,6.91
2017-11-06T15:51:18.242Z,6.92
2017-11-06T15:53:49.838Z,6.89
2017-11-06T15:56:22.628Z,6.83
2017-11-06T15:58:57.836Z,6.87
2017-11-06T16:01:29.632Z,6.87
2017-11-06T16:04:02.894Z,6.81
2017-11-06T16:06:34.908Z,6.86
2017-11-06T16:09:07.224Z,6.90
2017-11-06T16:11:39.383Z,6.85
2017-11-06T16:14:12.931Z,6.77
2017-11-06T16:16:44.709Z,6.76
2017-11-06T16:19:21.235Z,6.75
2017-11-06T16:21:55.160Z,6.71
2017-11-06T16:24:29.604Z,6.76
2017-11-06T16:27:09.883Z,6.79
2017-11-06T16:29:41.039Z,6.81
2017-11-06T16:32:12.338Z,6.69
2017-11-06T16:34:47.216Z,6.83
2017-11-06T16:37:20.002Z,6.83
2017-11-06T16:39:51.834Z,6.76
2017-11-06T16:42:23.259Z,6.70
2017-11-06T16:44:54.158Z,6.68
2017-11-06T16:47:25.726Z,6.67
2017-11-06T16:49:57.595Z,6.68
2017-11-06T16:52:30.309Z,6.73
2017-11-06T16:55:03.540Z,6.71
2017-11-06T16:57:34.778Z,6.71
2017-11-06T17:00:05.995Z,6.71
2017-11-06T17:02:36.869Z,6.76
2017-11-06T17:05:09.258Z,6.87
2017-11-06T17:07:40.504Z,6.93
2017-11-06T17:10:12.928Z,6.84
2017-11-06T17:12:45.571Z,6.79
2017-11-06T17:15:17.546Z,6.74
2017-11-06T17:17:52.380Z,6.68
2017-11-06T17:20:26.092Z,6.69
2017-11-06T17:22:57.515Z,6.69
2017-11-06T17:25:29.739Z,6.68
2017-11-06T17:28:00.933Z,6.63
2017-11-06T17:30:34.740Z,6.49
2017-11-06T17:33:06.643Z,6.57
2017-11-06T17:35:40.673Z,6.48
2017-11-06T17:38:13.660Z,6.45
2017-11-06T17:40:44.821Z,6.45
2017-11-06T17:43:17.580Z,6.44
2017-11-06T17:45:48.854Z,6.38
2017-11-06T17:48:20.985Z,6.30
2017-11-06T17:50:54.527Z,6.35
2017-11-06T17:53:25.923Z,6.24
2017-11-06T17:55:57.538Z,6.25
2017-11-06T17:58:29.265Z,6.14
2017-11-06T18:01:03.967Z,6.05
2017-11-06T18:03:35.322Z,6.03
2017-11-06T18:06:09.094Z,6.02
2017-11-06T18:08:40.544Z,6.01
2017-11-06T18:11:11.754Z,5.96
2017-11-06T18:13:44.288Z,5.94
2017-11-06T18:16:18.811Z,5.88
2017-11-06T18:18:50.954Z,5.87
2017-11-06T18:21:23.020Z,5.86
2017-11-06T18:23:57.744Z,5.84
2017-11-06T18:26:29.348Z,5.82
2017-11-06T18:29:05.248Z,5.77
2017-11-06T18:31:45.542Z,5.85
2017-11-06T18:34:20.973Z,5.91
2017-11-06T18:36:54.387Z,5.95
2017-11-06T18:39:43.188Z,6.07
2017-11-06T18:42:17.605Z,6.01
2017-11-06T18:44:51.274Z,5.76
2017-11-06T18:47:25.953Z,5.66
2017-11-06T18:49:59.135Z,5.58
2017-11-06T18:52:30.546Z,5.57
2017-11-06T18:55:04.240Z,5.56
2017-11-06T18:57:38.800Z,5.51
2017-11-06T19:00:14.021Z,5.60
2017-11-06T19:02:47.693Z,5.72
2017-11-06T19:05:20.564Z,5.86
2017-11-06T19:07:53.486Z,5.92
2017-11-06T19:10:26.118Z,5.99
2017-11-06T19:12:59.271Z,5.87
2017-11-06T19:15:32.681Z,5.98
2017-11-06T19:18:06.941Z,5.96
2017-11-06T19:20:38.868Z,5.83
2017-11-06T19:23:10.683Z,5.99
2017-11-06T19:25:46.623Z,5.89
2017-11-06T19:28:22.239Z,5.86
2017-11-06T19:30:54.394Z,5.84
2017-11-06T19:33:27.934Z,5.73
2017-11-06T19:36:02.598Z,5.74
2017-11-06T19:38:37.870Z,5.86
2017-11-06T19:41:13.969Z,5.87
2017-11-06T19:43:52.296Z,5.65
2017-11-06T19:46:30.460Z,5.60
2017-11-06T19:49:03.654Z,5.58
2017-11-06T19:51:36.052Z,5.43
2017-11-06T19:54:09.145Z,5.40
2017-11-06T19:56:42.848Z,5.32
2017-11-06T19:59:16.721Z,5.37
2017-11-06T20:01:52.508Z,5.36
2017-11-06T20:04:25.147Z,5.09
2017-11-06T20:07:04.365Z,5.00
2017-11-06T20:09:38.961Z,5.03
2017-11-06T20:12:11.053Z,5.02
2017-11-06T20:14:48.100Z,4.86
2017-11-06T20:17:21.694Z,4.84
2017-11-06T20:19:55.051Z,4.73
2017-11-06T20:22:34.445Z,4.65
2017-11-06T20:25:09.956Z,4.72
2017-11-06T20:27:42.705Z,4.80
2017-11-06T20:30:23.363Z,4.81
2017-11-06T20:32:57.993Z,4.66
2017-11-06T20:35:36.170Z,4.64
2017-11-06T20:38:10.422Z,4.51
2017-11-06T20:40:49.416Z,4.39
2017-11-06T20:43:22.761Z,4.49
2017-11-06T20:46:01.675Z,4.59
2017-11-06T20:48:50.727Z,4.64
2017-11-06T20:51:28.574Z,4.49
2017-11-06T20:54:01.362Z,4.52
2017-11-06T20:56:36.616Z,4.56
2017-11-06T20:59:10.094Z,4.42
2017-11-06T21:01:42.881Z,4.16
2017-11-06T21:04:14.958Z,4.07
2017-11-06T21:06:47.600Z,4.04
2017-11-06T21:09:19.313Z,4.02
2017-11-06T21:11:55.898Z,3.93
2017-11-06T21:14:29.780Z,3.96
2017-11-06T21:17:03.582Z,3.95
2017-11-06T21:19:38.335Z,3.91
2017-11-06T21:22:12.937Z,3.91
2017-11-06T21:24:52.540Z,3.89
2017-11-06T21:27:24.080Z,3.86
2017-11-06T21:30:00.497Z,3.82
2017-11-06T21:32:31.661Z,3.76
2017-11-06T21:35:02.581Z,3.73
2017-11-06T21:37:34.210Z,3.75
2017-11-06T21:40:13.138Z,3.74
2017-11-06T21:42:44.093Z,3.74
2017-11-06T21:45:19.380Z,3.73
2017-11-06T21:47:51.031Z,3.75
2017-11-06T21:50:24.050Z,3.82
2017-11-06T21:52:55.236Z,3.81
2017-11-06T21:55:26.008Z,3.72
2017-11-06T21:57:58.867Z,3.70
2017-11-06T22:00:30.517Z,3.68
2017-11-06T22:03:02.453Z,3.70
2017-11-06T22:05:34.541Z,3.72
2017-11-06T22:08:06.209Z,3.74
2017-11-06T22:10:42.226Z,3.82
2017-11-06T22:13:13.087Z,3.89
2017-11-06T22:15:44.372Z,3.96
2017-11-06T22:18:20.454Z,3.96
2017-11-06T22:20:53.922Z,3.84
2017-11-06T22:23:25.547Z,3.82
2017-11-06T22:25:58.000Z,3.85
2017-11-06T22:28:31.100Z,3.91
2017-11-06T22:31:04.746Z,3.98
2017-11-06T22:33:38.952Z,3.92
2017-11-06T22:36:11.572Z,3.91
2017-11-06T22:38:46.398Z,3.92
2017-11-06T22:41:20.361Z,4.00
2017-11-06T22:43:57.231Z,4.00
2017-11-06T22:46:30.240Z,3.88
2017-11-06T22:49:09.993Z,3.92
2017-11-06T22:51:46.528Z,3.87
2017-11-06T22:54:20.308Z,3.80
2017-11-06T22:56:53.263Z,3.93
2017-11-06T22:59:31.341Z,3.93
2017-11-06T23:04:56.128Z,4.00
2017-11-06T23:07:41.516Z,4.16
2017-11-06T23:10:14.555Z,4.11
2017-11-06T23:12:54.071Z,4.23
2017-11-06T23:15:26.898Z,4.26
2017-11-06T23:18:05.463Z,4.22
2017-11-06T23:20:38.258Z,4.19
2017-11-06T23:23:12.610Z,4.33
2017-11-06T23:25:48.994Z,4.43
2017-11-06T23:28:22.359Z,4.46
2017-11-06T23:30:55.515Z,4.59
2017-11-06T23:33:30.301Z,4.70
2017-11-06T23:36:03.858Z,4.80
2017-11-06T23:38:43.380Z,4.90
2017-11-06T23:41:17.310Z,4.98
2017-11-06T23:43:52.074Z,5.05
2017-11-06T23:46:27.755Z,5.08
2017-11-06T23:49:01.097Z,5.10
2017-11-06T23:51:36.881Z,5.09
2017-11-06T23:54:16.766Z,5.10
2017-11-06T23:56:52.163Z,5.10
2017-11-06T23:59:25.871Z,5.05
